Time;durP1;ratioP1;P1;durP2;ratioP2;P2;SDS_P1;SDS_P2;PMS_P1;PMS_P2;Temp;Humidity;BMP_temperature;BMP_pressure;BME280_temperature;BME280_humidity;BME280_pressure;Samples;Min_cycle;Max_cycle;Signal;HPM_P1;HPM_P2
2023/10/22 00:00:51;;;;;;;0.00;0.00;;;;;;;;;;4977313;28;20064;-72
2023/10/22 00:03:17;;;;;;;0.00;0.00;;;;;;;;;;4986240;28;20037;-72
2023/10/22 00:05:43;;;;;;;0.00;0.00;;;;;;;;;;4970532;28;20038;-71
2023/10/22 00:08:09;;;;;;;0.00;0.00;;;;;;;;;;4978099;28;20050;-71
2023/10/22 00:10:35;;;;;;;0.00;0.00;;;;;;;;;;4979324;28;20855;-71
2023/10/22 00:13:01;;;;;;;0.00;0.00;;;;;;;;;;4982274;28;20113;-71
2023/10/22 00:15:27;;;;;;;0.00;0.00;;;;;;;;;;4991940;28;20961;-71
2023/10/22 00:17:53;;;;;;;0.00;0.00;;;;;;;;;;4989966;28;20034;-68
2023/10/22 00:20:19;;;;;;;0.00;0.00;;;;;;;;;;4981753;28;20064;-67
2023/10/22 00:22:46;;;;;;;0.00;0.00;;;;;;;;;;4981359;28;20149;-68
2023/10/22 00:25:12;;;;;;;0.00;0.00;;;;;;;;;;4986055;28;20605;-68
2023/10/22 00:27:38;;;;;;;0.00;0.00;;;;;;;;;;4996768;28;20034;-71
2023/10/22 00:30:05;;;;;;;0.00;0.00;;;;;;;;;;5000480;28;20750;-72
2023/10/22 00:32:32;;;;;;;0.00;0.00;;;;;;;;;;4981394;28;20477;-71
2023/10/22 00:34:58;;;;;;;0.00;0.00;;;;;;;;;;4983417;28;20030;-71
2023/10/22 00:37:24;;;;;;;0.00;0.00;;;;;;;;;;4983276;28;20046;-71
2023/10/22 00:39:50;;;;;;;0.00;0.00;;;;;;;;;;4981848;28;20046;-72
2023/10/22 00:42:16;;;;;;;0.00;0.00;;;;;;;;;;4982755;28;20565;-71
2023/10/22 00:44:42;;;;;;;0.00;0.00;;;;;;;;;;4980118;28;20038;-72
2023/10/22 00:47:14;;;;;;;0.00;0.00;;;;;;;;;;4982459;28;20062;-72
2023/10/22 00:49:40;;;;;;;0.00;0.00;;;;;;;;;;4987198;28;20026;-70
2023/10/22 00:52:07;;;;;;;0.00;0.00;;;;;;;;;;4991294;28;20168;-72
2023/10/22 00:54:34;;;;;;;0.00;0.00;;;;;;;;;;4981901;28;20176;-71
2023/10/22 00:57:00;;;;;;;0.00;0.00;;;;;;;;;;4983573;28;20648;-71
2023/10/22 00:59:26;;;;;;;0.00;0.00;;;;;;;;;;4999023;28;20084;-71
2023/10/22 01:01:52;;;;;;;0.00;0.00;;;;;;;;;;4994952;28;20048;-71
2023/10/22 01:04:37;;;;;;;0.00;0.00;;;;;;;;;;4982226;28;20038;-73
2023/10/22 01:07:05;;;;;;;0.00;0.00;;;;;;;;;;4983451;28;20044;-71
2023/10/22 01:09:31;;;;;;;0.00;0.00;;;;;;;;;;4987816;28;20029;-73
2023/10/22 01:12:02;;;;;;;0.00;0.00;;;;;;;;;;4988177;28;20061;-71
2023/10/22 01:14:28;;;;;;;0.00;0.00;;;;;;;;;;4983313;28;20657;-71
2023/10/22 01:16:54;;;;;;;0.00;0.00;;;;;;;;;;4989044;28;20073;-71
2023/10/22 01:19:20;;;;;;;0.00;0.00;;;;;;;;;;4983063;28;20045;-71
2023/10/22 01:21:46;;;;;;;0.00;0.00;;;;;;;;;;4993537;28;20037;-71
2023/10/22 01:24:12;;;;;;;0.00;0.00;;;;;;;;;;4984699;28;20037;-72
2023/10/22 01:26:45;;;;;;;0.00;0.00;;;;;;;;;;4984337;28;20038;-73
2023/10/22 01:29:11;;;;;;;0.00;0.00;;;;;;;;;;4982225;28;20065;-71
2023/10/22 01:31:37;;;;;;;0.00;0.00;;;;;;;;;;4960591;28;20394;-73
2023/10/22 01:34:04;;;;;;;0.00;0.00;;;;;;;;;;4972043;28;20033;-71
2023/10/22 01:36:30;;;;;;;0.00;0.00;;;;;;;;;;4978938;28;20672;-71
2023/10/22 01:38:57;;;;;;;0.00;0.00;;;;;;;;;;4979674;28;20029;-71
2023/10/22 01:41:23;;;;;;;0.00;0.00;;;;;;;;;;4982457;28;20038;-72
2023/10/22 01:43:49;;;;;;;0.00;0.00;;;;;;;;;;4979485;28;20046;-71
2023/10/22 01:46:15;;;;;;;0.00;0.00;;;;;;;;;;4986749;28;20091;-72
2023/10/22 01:48:41;;;;;;;0.00;0.00;;;;;;;;;;4984623;28;20038;-71
2023/10/22 01:51:07;;;;;;;0.00;0.00;;;;;;;;;;4978928;28;20832;-73
2023/10/22 01:53:33;;;;;;;0.00;0.00;;;;;;;;;;4976361;28;20781;-72
2023/10/22 01:55:59;;;;;;;0.00;0.00;;;;;;;;;;4979342;28;20113;-71
2023/10/22 01:58:25;;;;;;;0.00;0.00;;;;;;;;;;4981265;28;20053;-72
2023/10/22 02:01:01;;;;;;;0.00;0.00;;;;;;;;;;4992016;28;20596;-72
2023/10/22 02:03:27;;;;;;;0.00;0.00;;;;;;;;;;4993905;28;20113;-72
2023/10/22 02:05:53;;;;;;;0.00;0.00;;;;;;;;;;4986916;28;21743;-72
2023/10/22 02:08:19;;;;;;;0.00;0.00;;;;;;;;;;4990552;28;20182;-72
2023/10/22 02:10:45;;;;;;;0.00;0.00;;;;;;;;;;4984935;28;20049;-72
2023/10/22 02:13:11;;;;;;;0.00;0.00;;;;;;;;;;4986353;28;20041;-72
2023/10/22 02:15:37;;;;;;;0.00;0.00;;;;;;;;;;4974878;28;20402;-72
2023/10/22 02:18:03;;;;;;;0.00;0.00;;;;;;;;;;4978639;28;20034;-71
2023/10/22 02:20:29;;;;;;;0.00;0.00;;;;;;;;;;4971606;28;20038;-71
2023/10/22 02:22:55;;;;;;;0.00;0.00;;;;;;;;;;4981327;28;20053;-72
2023/10/22 02:25:21;;;;;;;0.00;0.00;;;;;;;;;;4984574;28;20034;-71
2023/10/22 02:27:46;;;;;;;0.00;0.00;;;;;;;;;;4985680;28;20506;-71
2023/10/22 02:30:13;;;;;;;0.00;0.00;;;;;;;;;;4983954;28;20093;-71
2023/10/22 02:32:39;;;;;;;0.00;0.00;;;;;;;;;;4977730;28;20346;-71
2023/10/22 02:35:05;;;;;;;0.00;0.00;;;;;;;;;;4976765;28;20543;-71
2023/10/22 02:37:31;;;;;;;0.00;0.00;;;;;;;;;;4977021;28;20525;-71
2023/10/22 02:39:57;;;;;;;0.00;0.00;;;;;;;;;;4979446;28;20165;-71
2023/10/22 02:42:23;;;;;;;0.00;0.00;;;;;;;;;;4977131;28;20053;-71
2023/10/22 02:44:49;;;;;;;0.00;0.00;;;;;;;;;;4983348;28;20153;-71
2023/10/22 02:47:15;;;;;;;0.00;0.00;;;;;;;;;;4984966;28;20144;-68
2023/10/22 02:49:41;;;;;;;0.00;0.00;;;;;;;;;;4977318;28;20033;-67
2023/10/22 02:52:07;;;;;;;0.00;0.00;;;;;;;;;;4976584;28;20026;-67
2023/10/22 02:54:33;;;;;;;0.00;0.00;;;;;;;;;;4980464;28;20505;-68
2023/10/22 02:56:59;;;;;;;0.00;0.00;;;;;;;;;;4977472;28;20046;-69
2023/10/22 02:59:25;;;;;;;0.00;0.00;;;;;;;;;;4964183;28;20041;-68
2023/10/22 03:01:51;;;;;;;0.00;0.00;;;;;;;;;;4976422;28;20101;-68
2023/10/22 03:04:17;;;;;;;0.00;0.00;;;;;;;;;;4973238;28;20042;-68
2023/10/22 03:06:43;;;;;;;0.00;0.00;;;;;;;;;;4975514;28;20044;-68
2023/10/22 03:09:09;;;;;;;0.00;0.00;;;;;;;;;;4974863;28;20561;-68
2023/10/22 03:11:36;;;;;;;0.00;0.00;;;;;;;;;;4977992;28;20041;-68
2023/10/22 03:14:02;;;;;;;0.00;0.00;;;;;;;;;;4984374;28;20580;-68
2023/10/22 03:16:28;;;;;;;0.00;0.00;;;;;;;;;;4984344;28;20847;-69
2023/10/22 03:18:54;;;;;;;0.00;0.00;;;;;;;;;;4974697;28;20035;-68
2023/10/22 03:21:20;;;;;;;0.00;0.00;;;;;;;;;;4985143;28;20036;-69
2023/10/22 03:23:47;;;;;;;0.00;0.00;;;;;;;;;;4975771;28;20033;-68
2023/10/22 03:26:18;;;;;;;0.00;0.00;;;;;;;;;;4973908;28;20551;-68
2023/10/22 03:28:44;;;;;;;0.00;0.00;;;;;;;;;;4974558;28;20115;-68
2023/10/22 03:31:11;;;;;;;0.00;0.00;;;;;;;;;;4975768;28;20033;-68
2023/10/22 03:33:37;;;;;;;0.00;0.00;;;;;;;;;;4979782;28;20053;-69
2023/10/22 03:36:06;;;;;;;0.00;0.00;;;;;;;;;;4985788;28;20034;-68
2023/10/22 03:38:32;;;;;;;0.00;0.00;;;;;;;;;;4976503;28;20498;-68
2023/10/22 03:41:02;;;;;;;0.00;0.00;;;;;;;;;;4999879;28;20034;-68
2023/10/22 03:43:28;;;;;;;0.00;0.00;;;;;;;;;;4995707;28;21053;-69
2023/10/22 03:45:55;;;;;;;0.00;0.00;;;;;;;;;;4967186;28;20046;-69
2023/10/22 03:48:22;;;;;;;0.00;0.00;;;;;;;;;;4971111;28;20231;-68
2023/10/22 03:50:47;;;;;;;0.00;0.00;;;;;;;;;;4979178;28;20042;-68
2023/10/22 03:53:13;;;;;;;0.00;0.00;;;;;;;;;;4974552;28;20053;-68
2023/10/22 03:55:39;;;;;;;0.00;0.00;;;;;;;;;;4983690;28;20038;-68
2023/10/22 03:58:06;;;;;;;0.00;0.00;;;;;;;;;;4975591;28;20406;-68
2023/10/22 04:00:32;;;;;;;0.00;0.00;;;;;;;;;;4972622;28;20441;-68
2023/10/22 04:02:58;;;;;;;0.00;0.00;;;;;;;;;;4979484;28;21149;-68
2023/10/22 04:05:24;;;;;;;0.00;0.00;;;;;;;;;;4971067;28;20927;-68
2023/10/22 04:07:50;;;;;;;0.00;0.00;;;;;;;;;;4970208;28;20212;-68
2023/10/22 04:10:16;;;;;;;0.00;0.00;;;;;;;;;;4969765;28;20042;-68
2023/10/22 04:12:42;;;;;;;0.00;0.00;;;;;;;;;;4971845;28;20081;-68
2023/10/22 04:15:09;;;;;;;0.00;0.00;;;;;;;;;;4973337;28;20133;-69
2023/10/22 04:17:35;;;;;;;0.00;0.00;;;;;;;;;;4954848;28;20080;-68
2023/10/22 04:20:01;;;;;;;0.00;0.00;;;;;;;;;;4973570;28;20605;-68
2023/10/22 04:22:27;;;;;;;0.00;0.00;;;;;;;;;;4971970;28;20603;-68
2023/10/22 04:24:53;;;;;;;0.00;0.00;;;;;;;;;;4958964;28;20122;-69
2023/10/22 04:27:19;;;;;;;0.00;0.00;;;;;;;;;;4973203;28;20039;-69
2023/10/22 04:29:46;;;;;;;0.00;0.00;;;;;;;;;;4972894;28;20035;-68
2023/10/22 04:32:13;;;;;;;0.00;0.00;;;;;;;;;;4974143;28;20034;-69
2023/10/22 04:34:42;;;;;;;0.00;0.00;;;;;;;;;;4986608;28;20054;-68
2023/10/22 04:37:09;;;;;;;0.00;0.00;;;;;;;;;;4973334;28;20046;-68
2023/10/22 04:39:36;;;;;;;0.00;0.00;;;;;;;;;;4974896;28;20108;-67
2023/10/22 04:42:01;;;;;;;0.00;0.00;;;;;;;;;;4973806;28;20494;-68
2023/10/22 04:44:27;;;;;;;0.00;0.00;;;;;;;;;;4970513;28;20050;-68
2023/10/22 04:46:54;;;;;;;0.00;0.00;;;;;;;;;;4966708;28;20173;-69
2023/10/22 04:49:19;;;;;;;0.00;0.00;;;;;;;;;;4968286;28;20046;-69
2023/10/22 04:51:45;;;;;;;0.00;0.00;;;;;;;;;;4979015;28;20044;-67
2023/10/22 04:54:11;;;;;;;0.00;0.00;;;;;;;;;;4976903;28;20050;-67
2023/10/22 04:56:37;;;;;;;0.00;0.00;;;;;;;;;;4971148;28;20081;-69
2023/10/22 04:59:04;;;;;;;0.00;0.00;;;;;;;;;;4974556;28;20062;-69
2023/10/22 05:01:30;;;;;;;0.00;0.00;;;;;;;;;;4975673;28;20045;-68
2023/10/22 05:03:56;;;;;;;0.00;0.00;;;;;;;;;;4967030;28;20046;-69
2023/10/22 05:06:22;;;;;;;0.00;0.00;;;;;;;;;;4963165;28;20482;-68
2023/10/22 05:08:48;;;;;;;0.00;0.00;;;;;;;;;;4984126;28;20034;-70
2023/10/22 05:11:15;;;;;;;0.00;0.00;;;;;;;;;;4984243;28;20038;-70
2023/10/22 05:13:41;;;;;;;0.00;0.00;;;;;;;;;;4983706;28;20057;-70
2023/10/22 05:16:10;;;;;;;0.00;0.00;;;;;;;;;;4981616;28;20508;-70
2023/10/22 05:18:36;;;;;;;0.00;0.00;;;;;;;;;;4979977;28;20042;-70
2023/10/22 05:21:04;;;;;;;0.00;0.00;;;;;;;;;;4979393;28;20065;-70
2023/10/22 05:23:30;;;;;;;0.00;0.00;;;;;;;;;;4998163;28;20549;-70
2023/10/22 05:26:05;;;;;;;0.00;0.00;;;;;;;;;;4999604;28;20139;-70
2023/10/22 05:28:31;;;;;;;0.00;0.00;;;;;;;;;;4989973;28;20782;-70
2023/10/22 05:30:57;;;;;;;0.00;0.00;;;;;;;;;;4976976;28;20042;-71
2023/10/22 05:33:23;;;;;;;0.00;0.00;;;;;;;;;;4986108;28;20514;-71
2023/10/22 05:35:49;;;;;;;0.00;0.00;;;;;;;;;;4979555;28;20125;-70
2023/10/22 05:38:15;;;;;;;0.00;0.00;;;;;;;;;;4980223;28;20042;-71
2023/10/22 05:40:41;;;;;;;0.00;0.00;;;;;;;;;;4969865;28;20863;-70
2023/10/22 05:43:07;;;;;;;0.00;0.00;;;;;;;;;;4972690;28;20042;-71
2023/10/22 05:45:33;;;;;;;0.00;0.00;;;;;;;;;;4976539;28;20109;-71
2023/10/22 05:48:00;;;;;;;0.00;0.00;;;;;;;;;;4981778;28;20077;-71
2023/10/22 05:50:26;;;;;;;0.00;0.00;;;;;;;;;;4977286;28;20050;-71
2023/10/22 05:52:52;;;;;;;0.00;0.00;;;;;;;;;;4976605;28;20038;-70
2023/10/22 05:55:19;;;;;;;0.00;0.00;;;;;;;;;;4985580;28;20065;-71
2023/10/22 05:57:46;;;;;;;0.00;0.00;;;;;;;;;;4975304;28;20050;-71
2023/10/22 06:00:12;;;;;;;0.00;0.00;;;;;;;;;;4986533;28;20030;-70
2023/10/22 06:02:38;;;;;;;0.00;0.00;;;;;;;;;;4980142;28;20517;-71
2023/10/22 06:05:12;;;;;;;0.00;0.00;;;;;;;;;;4977213;28;20136;-70
2023/10/22 06:07:38;;;;;;;0.00;0.00;;;;;;;;;;4982821;28;20096;-70
2023/10/22 06:10:04;;;;;;;0.00;0.00;;;;;;;;;;4981641;28;20074;-70
2023/10/22 06:12:30;;;;;;;0.00;0.00;;;;;;;;;;4985026;28;20568;-71
2023/10/22 06:15:03;;;;;;;0.00;0.00;;;;;;;;;;4981057;28;20030;-71
2023/10/22 06:17:29;;;;;;;0.00;0.00;;;;;;;;;;4984613;28;22918;-71
2023/10/22 06:19:55;;;;;;;0.00;0.00;;;;;;;;;;4976848;28;20038;-70
2023/10/22 06:22:21;;;;;;;0.00;0.00;;;;;;;;;;4999531;28;20186;-71
2023/10/22 06:24:47;;;;;;;0.00;0.00;;;;;;;;;;4978411;28;20049;-71
2023/10/22 06:27:13;;;;;;;0.00;0.00;;;;;;;;;;4979157;28;20046;-70
2023/10/22 06:29:39;;;;;;;0.00;0.00;;;;;;;;;;4984540;28;20038;-70
2023/10/22 06:32:05;;;;;;;0.00;0.00;;;;;;;;;;4973488;28;20034;-70
2023/10/22 06:34:31;;;;;;;0.00;0.00;;;;;;;;;;4972594;28;20475;-70
2023/10/22 06:36:57;;;;;;;0.00;0.00;;;;;;;;;;4983031;28;20033;-68
2023/10/22 06:39:23;;;;;;;0.00;0.00;;;;;;;;;;4977358;28;20970;-69
2023/10/22 06:41:49;;;;;;;0.00;0.00;;;;;;;;;;4978413;28;20041;-68
2023/10/22 06:44:15;;;;;;;0.00;0.00;;;;;;;;;;4977931;28;20590;-69
2023/10/22 06:46:41;;;;;;;0.00;0.00;;;;;;;;;;4983124;28;20050;-69
2023/10/22 06:49:07;;;;;;;0.00;0.00;;;;;;;;;;4982638;28;20184;-69
2023/10/22 06:51:33;;;;;;;0.00;0.00;;;;;;;;;;4998863;28;20375;-69
2023/10/22 06:53:59;;;;;;;0.00;0.00;;;;;;;;;;4979800;28;20116;-69
2023/10/22 06:56:25;;;;;;;0.00;0.00;;;;;;;;;;4973945;28;20786;-69
2023/10/22 06:58:51;;;;;;;0.00;0.00;;;;;;;;;;4976854;28;20169;-69
2023/10/22 07:01:17;;;;;;;0.00;0.00;;;;;;;;;;4978173;28;20474;-69
2023/10/22 07:03:44;;;;;;;0.00;0.00;;;;;;;;;;4976918;28;20046;-69
2023/10/22 07:06:10;;;;;;;0.00;0.00;;;;;;;;;;4985430;28;20144;-69
2023/10/22 07:08:36;;;;;;;0.00;0.00;;;;;;;;;;4978347;28;20069;-68
2023/10/22 07:11:03;;;;;;;0.00;0.00;;;;;;;;;;4980515;28;20045;-69
2023/10/22 07:13:29;;;;;;;0.00;0.00;;;;;;;;;;4980704;28;20042;-69
2023/10/22 07:15:55;;;;;;;0.00;0.00;;;;;;;;;;4978455;28;20045;-69
2023/10/22 07:18:21;;;;;;;0.00;0.00;;;;;;;;;;4976516;28;20034;-69
2023/10/22 07:20:48;;;;;;;0.00;0.00;;;;;;;;;;4989270;28;20101;-68
2023/10/22 07:23:14;;;;;;;0.00;0.00;;;;;;;;;;4979337;28;20049;-69
2023/10/22 07:25:40;;;;;;;0.00;0.00;;;;;;;;;;4988018;28;20129;-69
2023/10/22 07:28:06;;;;;;;0.00;0.00;;;;;;;;;;4979923;28;20046;-69
2023/10/22 07:30:32;;;;;;;0.00;0.00;;;;;;;;;;4986332;28;20435;-69
2023/10/22 07:32:59;;;;;;;0.00;0.00;;;;;;;;;;4979074;28;20519;-69
2023/10/22 07:35:25;;;;;;;0.00;0.00;;;;;;;;;;4978973;28;20121;-69
2023/10/22 07:37:51;;;;;;;0.00;0.00;;;;;;;;;;4975904;28;20045;-68
2023/10/22 07:40:17;;;;;;;0.00;0.00;;;;;;;;;;4981751;28;20042;-69
2023/10/22 07:42:44;;;;;;;0.00;0.00;;;;;;;;;;4978657;28;20049;-69
2023/10/22 07:45:10;;;;;;;0.00;0.00;;;;;;;;;;4989744;28;20040;-68
2023/10/22 07:47:39;;;;;;;0.00;0.00;;;;;;;;;;4977476;28;20038;-68
2023/10/22 07:50:05;;;;;;;0.00;0.00;;;;;;;;;;4970681;28;20045;-69
2023/10/22 07:52:32;;;;;;;0.00;0.00;;;;;;;;;;4975957;28;20045;-69
2023/10/22 07:54:58;;;;;;;0.00;0.00;;;;;;;;;;4975244;28;20042;-69
2023/10/22 07:57:28;;;;;;;0.00;0.00;;;;;;;;;;4989064;28;20440;-69
2023/10/22 07:59:57;;;;;;;0.00;0.00;;;;;;;;;;4976549;28;20073;-70
2023/10/22 08:02:23;;;;;;;0.00;0.00;;;;;;;;;;4973542;28;20065;-70
2023/10/22 08:04:50;;;;;;;0.00;0.00;;;;;;;;;;4977478;28;20115;-70
2023/10/22 08:07:19;;;;;;;0.00;0.00;;;;;;;;;;4974314;28;20042;-70
2023/10/22 08:09:48;;;;;;;0.00;0.00;;;;;;;;;;4991116;28;20146;-69
2023/10/22 08:12:14;;;;;;;0.00;0.00;;;;;;;;;;4974099;28;20038;-69
2023/10/22 08:14:42;;;;;;;0.00;0.00;;;;;;;;;;4980368;28;20493;-69
2023/10/22 08:17:08;;;;;;;0.00;0.00;;;;;;;;;;4973593;28;20474;-69
2023/10/22 08:19:34;;;;;;;0.00;0.00;;;;;;;;;;4974261;28;20082;-70
2023/10/22 08:22:00;;;;;;;0.00;0.00;;;;;;;;;;4966202;28;20042;-68
2023/10/22 08:24:26;;;;;;;0.00;0.00;;;;;;;;;;4973538;28;20514;-70
2023/10/22 08:26:53;;;;;;;0.00;0.00;;;;;;;;;;4978384;28;20058;-69
2023/10/22 08:29:19;;;;;;;0.00;0.00;;;;;;;;;;4979903;28;20045;-70
2023/10/22 08:31:45;;;;;;;0.00;0.00;;;;;;;;;;4984122;28;20481;-70
2023/10/22 08:34:11;;;;;;;0.00;0.00;;;;;;;;;;4977281;28;20030;-70
2023/10/22 08:36:37;;;;;;;0.00;0.00;;;;;;;;;;4978139;28;20046;-70
2023/10/22 08:39:03;;;;;;;0.00;0.00;;;;;;;;;;4979485;28;20034;-70
2023/10/22 08:41:34;;;;;;;0.00;0.00;;;;;;;;;;4976430;28;20039;-70
2023/10/22 08:44:02;;;;;;;0.00;0.00;;;;;;;;;;4978706;28;20070;-69
2023/10/22 08:46:28;;;;;;;0.00;0.00;;;;;;;;;;4976814;28;20046;-70
2023/10/22 08:48:54;;;;;;;0.00;0.00;;;;;;;;;;4981641;28;20043;-70
2023/10/22 08:51:22;;;;;;;0.00;0.00;;;;;;;;;;4983667;28;20150;-69
2023/10/22 08:53:48;;;;;;;0.00;0.00;;;;;;;;;;4977114;28;20058;-69
2023/10/22 08:56:15;;;;;;;0.00;0.00;;;;;;;;;;4979973;28;20042;-69
2023/10/22 08:58:41;;;;;;;0.00;0.00;;;;;;;;;;4980315;28;20117;-69
2023/10/22 09:01:07;;;;;;;0.00;0.00;;;;;;;;;;4978631;28;20088;-70
2023/10/22 09:03:33;;;;;;;0.00;0.00;;;;;;;;;;4979301;28;20543;-69
2023/10/22 09:06:01;;;;;;;0.00;0.00;;;;;;;;;;4979165;28;20045;-70
2023/10/22 09:08:43;;;;;;;0.00;0.00;;;;;;;;;;4978308;28;20045;-70
2023/10/22 09:11:13;;;;;;;0.00;0.00;;;;;;;;;;4978575;28;20069;-69
2023/10/22 09:13:39;;;;;;;0.00;0.00;;;;;;;;;;4984800;28;20044;-69
2023/10/22 09:16:05;;;;;;;0.00;0.00;;;;;;;;;;4975884;28;20041;-70
2023/10/22 09:18:31;;;;;;;0.00;0.00;;;;;;;;;;4979550;28;20050;-70
2023/10/22 09:21:06;;;;;;;0.00;0.00;;;;;;;;;;4978074;28;20144;-70
2023/10/22 09:23:32;;;;;;;0.00;0.00;;;;;;;;;;4983710;28;20046;-70
2023/10/22 09:25:58;;;;;;;0.00;0.00;;;;;;;;;;4978487;28;20050;-70
2023/10/22 09:28:26;;;;;;;0.00;0.00;;;;;;;;;;4976615;28;20120;-69
2023/10/22 09:31:02;;;;;;;0.00;0.00;;;;;;;;;;4979247;28;20046;-69
2023/10/22 09:33:34;;;;;;;0.00;0.00;;;;;;;;;;4977082;28;20592;-70
2023/10/22 09:36:03;;;;;;;0.00;0.00;;;;;;;;;;4979448;28;20040;-69
2023/10/22 09:38:48;;;;;;;0.00;0.00;;;;;;;;;;4987496;28;20409;-70
2023/10/22 09:41:19;;;;;;;0.00;0.00;;;;;;;;;;4978751;28;20042;-70
2023/10/22 09:43:45;;;;;;;0.00;0.00;;;;;;;;;;4988802;28;20051;-70
2023/10/22 09:46:12;;;;;;;0.00;0.00;;;;;;;;;;4976879;28;20038;-70
2023/10/22 09:48:41;;;;;;;0.00;0.00;;;;;;;;;;4980682;28;20521;-70
2023/10/22 09:51:08;;;;;;;0.00;0.00;;;;;;;;;;4979464;28;20598;-69
2023/10/22 09:53:38;;;;;;;0.00;0.00;;;;;;;;;;4977238;28;20038;-70
2023/10/22 09:56:06;;;;;;;0.00;0.00;;;;;;;;;;4973489;28;20061;-70
2023/10/22 09:58:34;;;;;;;0.00;0.00;;;;;;;;;;4975838;28;20698;-69
2023/10/22 10:01:00;;;;;;;0.00;0.00;;;;;;;;;;4975460;28;20037;-69
2023/10/22 10:03:27;;;;;;;0.00;0.00;;;;;;;;;;4975816;28;20030;-69
2023/10/22 10:05:54;;;;;;;0.00;0.00;;;;;;;;;;4974722;28;20045;-69
2023/10/22 10:08:21;;;;;;;0.00;0.00;;;;;;;;;;4990903;28;20041;-73
2023/10/22 10:10:48;;;;;;;0.00;0.00;;;;;;;;;;4975048;28;20038;-69
2023/10/22 10:13:14;;;;;;;0.00;0.00;;;;;;;;;;4975661;28;20075;-70
2023/10/22 10:15:40;;;;;;;0.00;0.00;;;;;;;;;;4975497;28;20133;-70
2023/10/22 10:18:07;;;;;;;0.00;0.00;;;;;;;;;;4973600;28;20042;-70
2023/10/22 10:20:35;;;;;;;0.00;0.00;;;;;;;;;;4976018;28;20153;-70
2023/10/22 10:23:28;;;;;;;0.00;0.00;;;;;;;;;;4975058;28;20038;-70
2023/10/22 10:25:54;;;;;;;0.00;0.00;;;;;;;;;;4992265;28;20057;-70
2023/10/22 10:28:36;;;;;;;0.00;0.00;;;;;;;;;;4973254;28;20061;-69
2023/10/22 10:31:22;;;;;;;0.00;0.00;;;;;;;;;;4975703;28;20030;-70
2023/10/22 10:34:01;;;;;;;0.00;0.00;;;;;;;;;;4973549;28;20767;-69
2023/10/22 10:36:28;;;;;;;0.00;0.00;;;;;;;;;;4976655;28;20042;-71
2023/10/22 10:38:54;;;;;;;0.00;0.00;;;;;;;;;;4978506;28;20035;-71
2023/10/22 10:41:39;;;;;;;0.00;0.00;;;;;;;;;;4979717;28;20363;-71
2023/10/22 10:44:06;;;;;;;0.00;0.00;;;;;;;;;;4975263;28;20041;-71
2023/10/22 10:46:32;;;;;;;0.00;0.00;;;;;;;;;;4976744;28;20049;-70
2023/10/22 10:48:58;;;;;;;0.00;0.00;;;;;;;;;;4975450;28;20483;-70
2023/10/22 10:51:25;;;;;;;0.00;0.00;;;;;;;;;;4976033;28;20038;-70
2023/10/22 10:54:12;;;;;;;0.00;0.00;;;;;;;;;;4981329;28;20081;-69
2023/10/22 10:56:50;;;;;;;0.00;0.00;;;;;;;;;;4976891;28;20034;-70
2023/10/22 10:59:37;;;;;;;0.00;0.00;;;;;;;;;;4992564;28;20172;-70
2023/10/22 11:02:04;;;;;;;0.00;0.00;;;;;;;;;;4975288;28;20042;-70
2023/10/22 11:04:30;;;;;;;0.00;0.00;;;;;;;;;;4992459;28;20694;-70
2023/10/22 11:06:57;;;;;;;0.00;0.00;;;;;;;;;;4982041;28;20050;-70
2023/10/22 11:09:23;;;;;;;0.00;0.00;;;;;;;;;;4983638;28;20038;-70
2023/10/22 11:11:56;;;;;;;0.00;0.00;;;;;;;;;;4978043;28;20046;-70
2023/10/22 11:14:22;;;;;;;0.00;0.00;;;;;;;;;;4971099;28;20490;-70
2023/10/22 11:16:56;;;;;;;0.00;0.00;;;;;;;;;;4989351;28;20126;-70
2023/10/22 11:19:26;;;;;;;0.00;0.00;;;;;;;;;;4976620;28;20045;-70
2023/10/22 11:21:54;;;;;;;0.00;0.00;;;;;;;;;;4973559;28;20200;-70
2023/10/22 11:24:21;;;;;;;0.00;0.00;;;;;;;;;;4971038;28;20039;-70
2023/10/22 11:26:48;;;;;;;0.00;0.00;;;;;;;;;;4976068;28;20517;-70
2023/10/22 11:29:15;;;;;;;0.00;0.00;;;;;;;;;;4976325;28;20062;-70
2023/10/22 11:31:49;;;;;;;0.00;0.00;;;;;;;;;;4982145;28;20034;-70
2023/10/22 11:34:16;;;;;;;0.00;0.00;;;;;;;;;;4976144;28;20034;-70
2023/10/22 11:36:42;;;;;;;0.00;0.00;;;;;;;;;;4981304;28;20158;-72
2023/10/22 11:39:15;;;;;;;0.00;0.00;;;;;;;;;;4988639;28;20452;-72
2023/10/22 11:41:41;;;;;;;0.00;0.00;;;;;;;;;;4979823;28;20049;-71
2023/10/22 11:44:08;;;;;;;0.00;0.00;;;;;;;;;;4975892;28;20046;-72
2023/10/22 11:46:41;;;;;;;0.00;0.00;;;;;;;;;;4974315;28;20511;-73
2023/10/22 11:49:07;;;;;;;0.00;0.00;;;;;;;;;;4971548;28;20154;-71
2023/10/22 11:51:43;;;;;;;0.00;0.00;;;;;;;;;;4957932;28;20046;-72
2023/10/22 11:54:10;;;;;;;0.00;0.00;;;;;;;;;;4988719;28;20034;-72
2023/10/22 11:56:36;;;;;;;0.00;0.00;;;;;;;;;;4977894;28;20072;-72
2023/10/22 11:59:02;;;;;;;0.00;0.00;;;;;;;;;;4975433;28;20348;-71
2023/10/22 12:01:28;;;;;;;0.00;0.00;;;;;;;;;;4972332;28;20049;-72
2023/10/22 12:03:54;;;;;;;0.00;0.00;;;;;;;;;;4996238;28;20078;-71
2023/10/22 12:06:20;;;;;;;0.00;0.00;;;;;;;;;;4974533;28;20049;-72
2023/10/22 12:08:46;;;;;;;0.00;0.00;;;;;;;;;;4972128;28;20065;-72
2023/10/22 12:11:12;;;;;;;0.00;0.00;;;;;;;;;;4987494;28;20034;-74
2023/10/22 12:13:38;;;;;;;0.00;0.00;;;;;;;;;;4967199;28;20049;-70
2023/10/22 12:16:03;;;;;;;0.00;0.00;;;;;;;;;;4981742;28;20037;-71
2023/10/22 12:18:30;;;;;;;0.00;0.00;;;;;;;;;;4990005;28;20138;-71
2023/10/22 12:20:56;;;;;;;0.00;0.00;;;;;;;;;;4979901;28;20038;-71
2023/10/22 12:23:22;;;;;;;0.00;0.00;;;;;;;;;;4976224;28;20119;-71
2023/10/22 12:25:48;;;;;;;0.00;0.00;;;;;;;;;;4976773;28;20050;-71
2023/10/22 12:28:14;;;;;;;0.00;0.00;;;;;;;;;;4969902;28;20528;-71
2023/10/22 12:30:40;;;;;;;0.00;0.00;;;;;;;;;;4971363;28;20042;-71
2023/10/22 12:33:09;;;;;;;0.00;0.00;;;;;;;;;;4966800;28;20038;-71
2023/10/22 12:35:39;;;;;;;0.00;0.00;;;;;;;;;;4971852;28;20047;-71
2023/10/22 12:38:05;;;;;;;0.00;0.00;;;;;;;;;;4967908;28;20042;-71
2023/10/22 12:40:31;;;;;;;0.00;0.00;;;;;;;;;;4981742;28;20035;-72
2023/10/22 12:42:57;;;;;;;0.00;0.00;;;;;;;;;;4976561;28;20141;-71
2023/10/22 12:45:23;;;;;;;0.00;0.00;;;;;;;;;;4972605;28;21714;-71
2023/10/22 12:47:49;;;;;;;0.00;0.00;;;;;;;;;;4973349;28;20047;-71
2023/10/22 12:50:15;;;;;;;0.00;0.00;;;;;;;;;;4972876;28;20085;-71
2023/10/22 12:52:41;;;;;;;0.00;0.00;;;;;;;;;;4961818;28;20038;-71
2023/10/22 12:55:07;;;;;;;0.00;0.00;;;;;;;;;;4970092;28;20041;-71
2023/10/22 12:57:33;;;;;;;0.00;0.00;;;;;;;;;;4972584;28;20745;-71
2023/10/22 13:00:03;;;;;;;0.00;0.00;;;;;;;;;;4976222;28;20177;-71
2023/10/22 13:02:33;;;;;;;0.00;0.00;;;;;;;;;;4981591;28;21969;-71
2023/10/22 13:04:59;;;;;;;0.00;0.00;;;;;;;;;;4972246;28;20031;-71
2023/10/22 13:07:25;;;;;;;0.00;0.00;;;;;;;;;;4972068;28;20049;-71
2023/10/22 13:09:51;;;;;;;0.00;0.00;;;;;;;;;;4971762;28;20391;-71
2023/10/22 13:12:17;;;;;;;0.00;0.00;;;;;;;;;;4973418;28;20126;-71
2023/10/22 13:14:43;;;;;;;0.00;0.00;;;;;;;;;;4976335;28;20130;-71
2023/10/22 13:17:09;;;;;;;0.00;0.00;;;;;;;;;;4975971;28;20034;-70
2023/10/22 13:19:35;;;;;;;0.00;0.00;;;;;;;;;;4978151;28;20089;-71
2023/10/22 13:22:01;;;;;;;0.00;0.00;;;;;;;;;;4978421;28;20085;-71
2023/10/22 13:24:27;;;;;;;0.00;0.00;;;;;;;;;;4976960;28;20600;-71
2023/10/22 13:26:53;;;;;;;0.00;0.00;;;;;;;;;;4976793;28;20054;-71
2023/10/22 13:29:19;;;;;;;0.00;0.00;;;;;;;;;;4974951;28;20096;-70
2023/10/22 13:31:45;;;;;;;0.00;0.00;;;;;;;;;;4977977;28;20082;-70
2023/10/22 13:34:11;;;;;;;0.00;0.00;;;;;;;;;;4978493;28;20045;-71
2023/10/22 13:36:37;;;;;;;0.00;0.00;;;;;;;;;;4977600;28;20439;-68
2023/10/22 13:39:03;;;;;;;0.00;0.00;;;;;;;;;;4976020;28;20112;-69
2023/10/22 13:41:29;;;;;;;0.00;0.00;;;;;;;;;;4977026;28;20178;-69
2023/10/22 13:43:55;;;;;;;0.00;0.00;;;;;;;;;;4976805;28;20409;-70
2023/10/22 13:46:21;;;;;;;0.00;0.00;;;;;;;;;;4975326;28;20043;-70
2023/10/22 13:48:47;;;;;;;0.00;0.00;;;;;;;;;;4976569;28;20049;-70
2023/10/22 13:51:13;;;;;;;0.00;0.00;;;;;;;;;;4973944;28;20042;-69
2023/10/22 13:53:39;;;;;;;0.00;0.00;;;;;;;;;;4975829;28;20078;-69
2023/10/22 13:56:08;;;;;;;0.00;0.00;;;;;;;;;;4976831;28;20043;-69
2023/10/22 13:58:35;;;;;;;0.00;0.00;;;;;;;;;;4985507;28;20398;-70
2023/10/22 14:01:01;;;;;;;0.00;0.00;;;;;;;;;;4979653;28;20038;-70
2023/10/22 14:03:27;;;;;;;0.00;0.00;;;;;;;;;;4978369;28;20435;-70
2023/10/22 14:05:54;;;;;;;0.00;0.00;;;;;;;;;;4975045;28;20046;-70
2023/10/22 14:08:20;;;;;;;0.00;0.00;;;;;;;;;;4972136;28;20043;-70
2023/10/22 14:10:46;;;;;;;0.00;0.00;;;;;;;;;;4975179;28;20050;-70
2023/10/22 14:13:14;;;;;;;0.00;0.00;;;;;;;;;;4975796;28;20123;-70
2023/10/22 14:15:42;;;;;;;0.00;0.00;;;;;;;;;;4975796;28;20046;-70
2023/10/22 14:18:08;;;;;;;0.00;0.00;;;;;;;;;;4973533;28;20120;-70
2023/10/22 14:20:34;;;;;;;0.00;0.00;;;;;;;;;;4976353;28;20736;-70
2023/10/22 14:23:00;;;;;;;0.00;0.00;;;;;;;;;;4982817;28;20036;-70
2023/10/22 14:25:26;;;;;;;0.00;0.00;;;;;;;;;;4981924;28;20045;-70
2023/10/22 14:27:52;;;;;;;0.00;0.00;;;;;;;;;;4975017;28;20898;-70
2023/10/22 14:30:18;;;;;;;0.00;0.00;;;;;;;;;;4971728;28;20038;-70
2023/10/22 14:32:44;;;;;;;0.00;0.00;;;;;;;;;;4992964;28;20050;-69
2023/10/22 14:35:10;;;;;;;0.00;0.00;;;;;;;;;;4975908;28;20041;-70
2023/10/22 14:37:37;;;;;;;0.00;0.00;;;;;;;;;;4981062;28;20026;-70
2023/10/22 14:40:04;;;;;;;0.00;0.00;;;;;;;;;;4974182;28;20475;-70
2023/10/22 14:42:30;;;;;;;0.00;0.00;;;;;;;;;;4976233;28;20491;-69